createdAt,value
2023-01-18T00:01:20.180Z,5.10
2023-01-18T00:03:48.229Z,5.00
2023-01-18T00:06:16.649Z,5.00
2023-01-18T00:08:44.447Z,4.90
2023-01-18T00:11:18.523Z,5.00
2023-01-18T00:13:46.842Z,5.00
2023-01-18T00:16:20.232Z,5.10
2023-01-18T00:18:56.592Z,5.10
2023-01-18T00:21:27.005Z,5.10
2023-01-18T00:23:57.769Z,5.10
2023-01-18T00:26:25.519Z,5.20
2023-01-18T00:28:55.591Z,5.30
2023-01-18T00:31:23.491Z,5.40
2023-01-18T00:33:51.214Z,5.40
2023-01-18T00:36:19.428Z,5.40
2023-01-18T00:38:54.412Z,5.20
2023-01-18T00:41:22.886Z,5.30
2023-01-18T00:43:51.792Z,5.30
2023-01-18T00:46:22.392Z,5.20
2023-01-18T00:48:51.705Z,5.10
2023-01-18T00:51:23.389Z,5.10
2023-01-18T00:53:51.652Z,5.30
2023-01-18T00:56:22.088Z,5.30
2023-01-18T00:58:50.056Z,5.30
2023-01-18T01:01:17.836Z,5.20
2023-01-18T01:04:03.988Z,5.20
2023-01-18T01:06:45.648Z,5.30
2023-01-18T01:09:23.657Z,5.30
2023-01-18T01:12:10.362Z,5.10
2023-01-18T01:15:00.402Z,5.00
2023-01-18T01:17:52.101Z,4.90
2023-01-18T01:20:39.168Z,4.90
2023-01-18T01:23:33.904Z,4.80
2023-01-18T01:26:08.625Z,4.90
2023-01-18T01:28:41.264Z,4.90
2023-01-18T01:31:11.998Z,4.90
2023-01-18T01:33:40.470Z,4.80
2023-01-18T01:36:20.388Z,4.90
2023-01-18T01:38:48.155Z,5.00
2023-01-18T01:41:20.834Z,5.10
2023-01-18T01:43:49.799Z,5.20
2023-01-18T01:46:44.763Z,5.10
2023-01-18T01:49:20.328Z,5.00
2023-01-18T01:51:57.820Z,5.00
2023-01-18T01:54:42.426Z,5.00
2023-01-18T01:57:16.150Z,5.20
2023-01-18T01:59:50.988Z,5.10
2023-01-18T02:02:19.006Z,5.00
2023-01-18T02:04:53.776Z,5.10
2023-01-18T02:07:23.189Z,5.20
2023-01-18T02:09:52.574Z,5.30
2023-01-18T02:12:21.121Z,5.30
2023-01-18T02:14:49.201Z,5.30
2023-01-18T02:17:34.655Z,5.10
2023-01-18T02:20:38.077Z,5.10
2023-01-18T02:23:24.033Z,5.00
2023-01-18T02:26:16.625Z,5.10
2023-01-18T02:28:53.395Z,5.00
2023-01-18T02:31:26.384Z,4.80
2023-01-18T02:34:38.730Z,4.90
2023-01-18T02:37:30.111Z,5.10
2023-01-18T02:40:07.546Z,5.00
2023-01-18T02:42:57.696Z,4.70
2023-01-18T02:45:52.772Z,4.80
2023-01-18T02:48:23.362Z,4.90
2023-01-18T02:50:51.830Z,4.80
2023-01-18T02:53:19.559Z,4.70
2023-01-18T02:56:02.416Z,4.70
2023-01-18T02:58:47.946Z,4.80
2023-01-18T03:01:34.212Z,4.80
2023-01-18T03:04:30.394Z,4.90
2023-01-18T03:07:05.389Z,4.90
2023-01-18T03:09:33.193Z,4.80
2023-01-18T03:12:13.117Z,4.70
2023-01-18T03:15:05.793Z,4.70
2023-01-18T03:17:44.041Z,4.70
2023-01-18T03:20:15.120Z,4.80
2023-01-18T03:23:22.037Z,4.70
2023-01-18T03:25:52.177Z,4.70
2023-01-18T03:29:11.308Z,4.70
2023-01-18T03:32:26.970Z,4.80
2023-01-18T03:35:08.174Z,4.80
2023-01-18T03:37:40.291Z,4.70
2023-01-18T03:40:15.787Z,4.70
2023-01-18T03:43:08.351Z,4.60
2023-01-18T03:45:48.452Z,4.80
2023-01-18T03:48:16.933Z,4.80
2023-01-18T03:50:50.319Z,4.80
2023-01-18T03:53:33.256Z,4.70
2023-01-18T03:56:10.063Z,4.70
2023-01-18T03:58:38.001Z,4.50
2023-01-18T04:01:06.479Z,4.40
2023-01-18T04:03:34.771Z,4.40
2023-01-18T04:06:04.329Z,4.30
2023-01-18T04:08:32.120Z,4.40
2023-01-18T04:10:59.817Z,4.40
2023-01-18T04:13:27.595Z,4.50
2023-01-18T04:15:55.293Z,4.60
2023-01-18T04:18:23.035Z,4.70
2023-01-18T04:20:56.422Z,4.60
2023-01-18T04:23:24.285Z,4.60
2023-01-18T04:25:52.144Z,4.50
2023-01-18T04:28:27.669Z,4.50
2023-01-18T04:30:57.052Z,4.60
2023-01-18T04:33:26.917Z,4.70
2023-01-18T04:35:54.828Z,4.50
2023-01-18T04:38:23.232Z,4.60
2023-01-18T04:40:51.015Z,4.70
2023-01-18T04:43:18.778Z,4.70
2023-01-18T04:45:56.410Z,4.70
2023-01-18T04:48:24.831Z,4.60
2023-01-18T04:50:53.101Z,4.40
2023-01-18T04:53:21.496Z,4.20
2023-01-18T04:55:49.226Z,4.30
2023-01-18T04:58:17.159Z,4.30
2023-01-18T05:00:44.986Z,4.30
2023-01-18T05:03:13.454Z,4.20
2023-01-18T05:05:41.252Z,4.10
2023-01-18T05:08:08.992Z,4.10
2023-01-18T05:10:36.740Z,4.10
2023-01-18T05:13:04.438Z,4.10
2023-01-18T05:15:35.025Z,4.20
2023-01-18T05:18:02.931Z,4.30
2023-01-18T05:20:30.590Z,4.40
2023-01-18T05:22:58.744Z,4.40
2023-01-18T05:25:26.552Z,4.30
2023-01-18T05:27:55.275Z,4.30
2023-01-18T05:30:23.503Z,4.50
2023-01-18T05:32:51.135Z,4.50
2023-01-18T05:35:18.745Z,4.60
2023-01-18T05:37:46.340Z,4.70
2023-01-18T05:40:14.191Z,4.70
2023-01-18T05:42:41.811Z,4.80
2023-01-18T05:45:10.718Z,4.80
2023-01-18T05:47:38.532Z,4.80
2023-01-18T05:50:06.580Z,4.80
2023-01-18T05:52:34.679Z,4.90
2023-01-18T05:55:02.393Z,4.90
2023-01-18T05:57:30.232Z,4.80
2023-01-18T05:59:58.931Z,4.80
2023-01-18T06:02:26.722Z,4.80
2023-01-18T06:04:54.320Z,4.80
2023-01-18T06:07:22.173Z,4.90
2023-01-18T06:09:49.935Z,4.70
2023-01-18T06:12:17.733Z,4.60
2023-01-18T06:14:45.459Z,4.50
2023-01-18T06:17:13.376Z,4.60
2023-01-18T06:19:41.082Z,4.70
2023-01-18T06:22:08.729Z,4.80
2023-01-18T06:24:36.445Z,4.80
2023-01-18T06:27:04.360Z,4.80
2023-01-18T06:29:32.031Z,4.80
2023-01-18T06:31:59.731Z,4.60
2023-01-18T06:34:30.132Z,4.40
2023-01-18T06:36:58.096Z,4.30
2023-01-18T06:39:26.094Z,4.30
2023-01-18T06:41:53.728Z,4.30
2023-01-18T06:44:21.809Z,4.30
2023-01-18T06:46:49.411Z,4.30
2023-01-18T06:49:17.144Z,4.20
2023-01-18T06:51:44.891Z,4.20
2023-01-18T06:54:14.971Z,4.20
2023-01-18T06:56:42.719Z,4.20
2023-01-18T06:59:10.602Z,4.30
2023-01-18T07:01:38.548Z,4.30
2023-01-18T07:04:06.460Z,4.30
2023-01-18T07:06:34.294Z,4.20
2023-01-18T07:09:01.975Z,4.30
2023-01-18T07:11:29.606Z,4.40
2023-01-18T07:13:57.332Z,4.30
2023-01-18T07:16:25.134Z,4.50
2023-01-18T07:18:52.833Z,4.50
2023-01-18T07:21:22.987Z,4.50
2023-01-18T07:23:50.846Z,4.50
2023-01-18T07:26:18.669Z,4.50
2023-01-18T07:28:47.510Z,4.50
2023-01-18T07:31:17.200Z,4.40
2023-01-18T07:33:45.248Z,4.50
2023-01-18T07:36:14.288Z,4.50
2023-01-18T07:38:42.020Z,4.60
2023-01-18T07:41:14.806Z,4.70
2023-01-18T07:43:44.810Z,4.60
2023-01-18T07:46:17.546Z,4.60
2023-01-18T07:48:45.870Z,4.60
2023-01-18T07:51:13.554Z,4.60
2023-01-18T07:53:41.419Z,4.70
2023-01-18T07:56:13.571Z,4.70
2023-01-18T07:58:41.487Z,4.70
2023-01-18T08:01:15.144Z,4.80
2023-01-18T08:03:44.476Z,4.90
2023-01-18T08:06:17.109Z,4.90
2023-01-18T08:08:45.331Z,4.90
2023-01-18T08:11:13.271Z,4.80
2023-01-18T08:13:41.743Z,4.80
2023-01-18T08:16:11.977Z,4.90
2023-01-18T08:18:40.626Z,5.00
2023-01-18T08:21:12.597Z,5.00
2023-01-18T08:23:40.878Z,5.00
2023-01-18T08:26:09.720Z,4.90
2023-01-18T08:28:37.523Z,4.80
2023-01-18T08:31:23.418Z,4.70
2023-01-18T08:33:51.605Z,4.80
2023-01-18T08:36:22.490Z,4.80
2023-01-18T08:38:52.671Z,4.90
2023-01-18T08:41:21.442Z,5.00
2023-01-18T08:43:51.203Z,5.10
2023-01-18T08:46:20.352Z,5.20
2023-01-18T08:48:52.592Z,5.30
2023-01-18T08:51:21.917Z,5.30
2023-01-18T08:53:54.580Z,5.20
2023-01-18T08:56:22.730Z,5.20
2023-01-18T08:58:52.364Z,5.10
2023-01-18T09:01:20.507Z,5.10
2023-01-18T09:03:50.579Z,5.00
2023-01-18T09:06:18.353Z,4.90
2023-01-18T09:08:49.744Z,5.00
2023-01-18T09:11:18.878Z,5.10
2023-01-18T09:13:59.763Z,5.00
2023-01-18T09:16:28.135Z,5.10
2023-01-18T09:19:01.316Z,5.00
2023-01-18T09:21:29.711Z,5.10
2023-01-18T09:23:59.532Z,5.10
2023-01-18T09:26:28.193Z,5.00
2023-01-18T09:28:55.928Z,5.00
2023-01-18T09:31:30.753Z,4.90
2023-01-18T09:34:13.176Z,4.90
2023-01-18T09:36:46.249Z,4.80
2023-01-18T09:39:13.926Z,4.90
2023-01-18T09:41:47.097Z,4.90
2023-01-18T09:44:22.227Z,4.80
2023-01-18T09:46:55.055Z,4.80
2023-01-18T09:49:55.148Z,4.90
2023-01-18T09:52:42.280Z,4.80
2023-01-18T09:55:38.911Z,4.90
2023-01-18T09:58:15.655Z,5.00
2023-01-18T10:00:47.784Z,5.00
2023-01-18T10:03:24.962Z,4.90
2023-01-18T10:06:09.026Z,4.90
2023-01-18T10:08:49.913Z,5.00
2023-01-18T10:11:31.544Z,4.90
2023-01-18T10:14:03.461Z,4.90
2023-01-18T10:16:33.423Z,5.10
2023-01-18T10:19:04.436Z,5.10
2023-01-18T10:21:53.312Z,5.10
2023-01-18T10:24:39.850Z,5.10
2023-01-18T10:27:34.034Z,5.10
2023-01-18T10:30:11.513Z,5.00
2023-01-18T10:32:44.099Z,5.00
2023-01-18T10:35:36.841Z,5.10
2023-01-18T10:38:13.494Z,5.10
2023-01-18T10:40:44.052Z,5.00
2023-01-18T10:43:17.267Z,5.00
2023-01-18T10:45:45.160Z,5.10
2023-01-18T10:48:19.230Z,5.20
2023-01-18T10:50:53.461Z,5.40
2023-01-18T10:53:25.349Z,5.50
2023-01-18T10:56:02.238Z,5.50
2023-01-18T10:58:52.820Z,5.40
2023-01-18T11:01:23.731Z,5.40
2023-01-18T11:04:21.032Z,5.40
2023-01-18T11:07:00.808Z,5.40
2023-01-18T11:10:02.309Z,5.50
2023-01-18T11:12:48.717Z,5.50
2023-01-18T11:15:16.356Z,5.60
2023-01-18T11:17:54.744Z,5.80
2023-01-18T11:20:29.874Z,5.80
2023-01-18T11:23:09.844Z,5.90
2023-01-18T11:26:00.731Z,5.80
2023-01-18T11:28:37.434Z,5.90
2023-01-18T11:31:11.041Z,6.10
2023-01-18T11:33:50.213Z,6.40
2023-01-18T11:36:19.650Z,6.50
2023-01-18T11:38:48.080Z,6.50
2023-01-18T11:41:21.407Z,6.30
2023-01-18T11:43:58.680Z,6.20
2023-01-18T11:46:39.094Z,6.20
2023-01-18T11:49:25.400Z,6.30
2023-01-18T11:52:03.550Z,6.10
2023-01-18T11:55:03.066Z,5.80
2023-01-18T11:57:31.635Z,5.90
2023-01-18T11:59:59.706Z,5.90
2023-01-18T12:02:46.271Z,5.90
2023-01-18T12:05:54.875Z,6.00
2023-01-18T12:09:20.221Z,6.10
2023-01-18T12:12:18.503Z,6.20
2023-01-18T12:14:55.723Z,6.20
2023-01-18T12:17:49.310Z,6.20
2023-01-18T12:20:50.967Z,6.20
2023-01-18T12:23:31.385Z,6.20
2023-01-18T12:26:18.393Z,6.20
2023-01-18T12:29:03.975Z,6.20
2023-01-18T12:31:50.391Z,6.20
2023-01-18T12:34:23.875Z,6.20
2023-01-18T12:37:31.721Z,6.20
2023-01-18T12:40:06.433Z,6.20
2023-01-18T12:42:46.078Z,6.40
2023-01-18T12:46:02.028Z,6.40
2023-01-18T12:48:54.754Z,6.40
2023-01-18T12:51:26.419Z,6.40
2023-01-18T12:54:02.343Z,6.20
2023-01-18T12:56:43.075Z,6.20
2023-01-18T12:59:24.027Z,6.20
2023-01-18T13:02:01.992Z,6.30
2023-01-18T13:04:40.279Z,6.40
2023-01-18T13:07:15.037Z,6.40
2023-01-18T13:09:48.640Z,6.50
2023-01-18T13:12:17.041Z,6.40
2023-01-18T13:14:48.647Z,6.40
2023-01-18T13:17:28.953Z,6.30
2023-01-18T13:20:05.140Z,6.30
2023-01-18T13:22:41.851Z,6.30
2023-01-18T13:25:35.515Z,6.40
2023-01-18T13:28:14.084Z,6.40
2023-01-18T13:30:53.495Z,6.50
2023-01-18T13:33:24.434Z,6.60
2023-01-18T13:36:14.329Z,6.40
2023-01-18T13:38:58.369Z,6.50
2023-01-18T13:41:29.631Z,6.60
2023-01-18T13:44:39.827Z,6.60
2023-01-18T13:47:35.807Z,6.70
2023-01-18T13:50:05.404Z,6.70
2023-01-18T13:52:42.404Z,6.50
2023-01-18T13:55:32.051Z,6.60
2023-01-18T13:58:00.159Z,6.60
2023-01-18T14:00:30.087Z,6.70
2023-01-18T14:03:07.195Z,6.70
2023-01-18T14:05:42.652Z,6.70
2023-01-18T14:08:26.445Z,6.80
2023-01-18T14:11:07.992Z,6.80
2023-01-18T14:13:50.464Z,6.80
2023-01-18T14:16:22.213Z,6.90
2023-01-18T14:18:54.372Z,6.90
2023-01-18T14:21:52.719Z,6.80
2023-01-18T14:24:45.143Z,6.70
2023-01-18T14:27:22.899Z,6.70
2023-01-18T14:29:59.628Z,6.70
2023-01-18T14:32:36.000Z,6.70
2023-01-18T14:35:15.961Z,6.70
2023-01-18T14:37:43.641Z,6.70
2023-01-18T14:40:16.035Z,6.70
2023-01-18T14:42:53.953Z,6.80
2023-01-18T14:45:24.908Z,6.90
2023-01-18T14:47:52.840Z,6.90
2023-01-18T14:50:22.817Z,6.90
2023-01-18T14:52:53.245Z,6.90
2023-01-18T14:55:29.377Z,6.90
2023-01-18T14:58:17.369Z,6.80
2023-01-18T15:00:54.003Z,6.80
2023-01-18T15:03:24.101Z,6.70
2023-01-18T15:06:02.298Z,6.60
2023-01-18T15:08:34.085Z,6.70
2023-01-18T15:11:05.326Z,6.80
2023-01-18T15:13:38.139Z,6.80
2023-01-18T15:16:06.994Z,6.80
2023-01-18T15:18:34.619Z,6.70
2023-01-18T15:21:10.326Z,6.80
2023-01-18T15:23:38.342Z,6.70
2023-01-18T15:26:06.353Z,6.80
2023-01-18T15:28:34.550Z,6.60
2023-01-18T15:31:16.536Z,6.60
2023-01-18T15:33:46.131Z,6.60
2023-01-18T15:36:14.301Z,6.70
2023-01-18T15:38:42.039Z,6.70
2023-01-18T15:41:14.922Z,6.70
2023-01-18T15:43:44.997Z,6.70
2023-01-18T15:46:16.259Z,6.70
2023-01-18T15:48:51.818Z,6.70
2023-01-18T15:51:40.198Z,6.70
2023-01-18T15:54:08.409Z,6.60
2023-01-18T15:56:37.090Z,6.70
2023-01-18T15:59:09.994Z,6.70
2023-01-18T16:01:37.827Z,6.60
2023-01-18T16:04:22.415Z,6.60
2023-01-18T16:06:50.296Z,6.60
2023-01-18T16:09:21.615Z,6.60
2023-01-18T16:11:54.807Z,6.50
2023-01-18T16:14:34.080Z,6.50
2023-01-18T16:17:06.098Z,6.40
2023-01-18T16:19:40.681Z,6.40
2023-01-18T16:22:25.287Z,6.40
2023-01-18T16:25:01.637Z,6.50
2023-01-18T16:27:31.536Z,6.40
2023-01-18T16:30:01.656Z,6.20
2023-01-18T16:32:33.329Z,6.10
2023-01-18T16:35:22.712Z,6.00
2023-01-18T16:37:52.193Z,6.00
2023-01-18T16:40:22.962Z,6.00
2023-01-18T16:43:01.677Z,6.00
2023-01-18T16:45:33.868Z,6.00
2023-01-18T16:48:02.076Z,6.10
2023-01-18T16:50:30.239Z,6.10
2023-01-18T16:52:57.901Z,6.10
2023-01-18T16:55:25.649Z,6.10
2023-01-18T16:57:53.292Z,6.20
2023-01-18T17:00:23.872Z,6.10
2023-01-18T17:02:53.479Z,6.10
2023-01-18T17:05:21.346Z,6.20
2023-01-18T17:07:50.808Z,6.20
2023-01-18T17:10:38.508Z,6.30
2023-01-18T17:13:06.248Z,6.20
2023-01-18T17:15:34.919Z,6.30
2023-01-18T17:18:04.381Z,6.40
2023-01-18T17:20:32.383Z,6.40
2023-01-18T17:23:01.177Z,6.40
2023-01-18T17:25:29.574Z,6.50
2023-01-18T17:27:58.233Z,6.60
2023-01-18T17:30:25.965Z,6.70
2023-01-18T17:32:53.769Z,6.60
2023-01-18T17:35:23.731Z,6.50
2023-01-18T17:38:00.640Z,6.50
2023-01-18T17:40:41.792Z,6.50
2023-01-18T17:43:28.464Z,6.50
2023-01-18T17:46:03.634Z,6.60
2023-01-18T17:48:31.456Z,6.60
2023-01-18T17:50:59.494Z,6.60
2023-01-18T17:53:27.647Z,6.60
2023-01-18T17:55:55.362Z,6.40
2023-01-18T17:58:23.208Z,6.40
2023-01-18T18:00:51.050Z,6.40
2023-01-18T18:03:18.891Z,6.40
2023-01-18T18:05:46.813Z,6.40
2023-01-18T18:08:15.693Z,6.40
2023-01-18T18:10:44.079Z,6.30
2023-01-18T18:13:11.734Z,6.30
2023-01-18T18:15:45.060Z,6.20
2023-01-18T18:18:22.722Z,6.20
2023-01-18T18:21:01.660Z,6.20
2023-01-18T18:23:30.370Z,6.20
2023-01-18T18:26:00.287Z,6.30
2023-01-18T18:28:29.654Z,6.20
2023-01-18T18:30:58.336Z,6.30
2023-01-18T18:33:28.026Z,6.30
2023-01-18T18:35:56.500Z,6.40
2023-01-18T18:38:26.668Z,6.30
2023-01-18T18:40:55.006Z,6.40
2023-01-18T18:43:24.686Z,6.50
2023-01-18T18:45:52.541Z,6.60
2023-01-18T18:48:20.359Z,6.60
2023-01-18T18:50:48.027Z,6.50
2023-01-18T18:53:16.878Z,6.50
2023-01-18T18:55:44.834Z,6.40
2023-01-18T18:58:13.015Z,6.30
2023-01-18T19:00:40.765Z,6.20
2023-01-18T19:03:08.996Z,6.20
2023-01-18T19:05:37.329Z,6.20
2023-01-18T19:08:05.269Z,6.10
2023-01-18T19:10:33.043Z,6.10
2023-01-18T19:13:02.511Z,6.10
2023-01-18T19:15:30.598Z,6.10
2023-01-18T19:17:59.016Z,6.10
2023-01-18T19:20:26.823Z,6.10
2023-01-18T19:22:55.840Z,6.10
2023-01-18T19:25:23.532Z,6.10
2023-01-18T19:27:51.215Z,6.20
2023-01-18T19:30:19.011Z,6.20
2023-01-18T19:32:48.633Z,6.30
2023-01-18T19:35:17.017Z,6.30
2023-01-18T19:37:45.546Z,6.30
2023-01-18T19:40:14.123Z,6.20
2023-01-18T19:42:41.922Z,6.10
2023-01-18T19:45:13.801Z,6.00
2023-01-18T19:47:44.354Z,5.90
2023-01-18T19:50:12.243Z,6.00
2023-01-18T19:52:41.026Z,6.00
2023-01-18T19:55:09.426Z,6.10
2023-01-18T19:57:37.140Z,6.00
2023-01-18T20:00:07.603Z,5.90
2023-01-18T20:02:42.165Z,5.80
2023-01-18T20:05:10.479Z,5.80
2023-01-18T20:07:39.641Z,6.00
2023-01-18T20:10:08.304Z,6.00
2023-01-18T20:12:35.998Z,6.00
2023-01-18T20:15:04.014Z,6.00
2023-01-18T20:17:31.907Z,5.90
2023-01-18T20:19:59.626Z,5.90
2023-01-18T20:22:27.325Z,5.90
2023-01-18T20:24:55.163Z,5.90
2023-01-18T20:27:22.938Z,6.00
2023-01-18T20:29:51.036Z,6.00
2023-01-18T20:32:18.844Z,6.10
2023-01-18T20:34:47.587Z,6.10
2023-01-18T20:37:16.603Z,6.00
2023-01-18T20:39:44.431Z,6.00
2023-01-18T20:42:13.206Z,6.10
2023-01-18T20:44:41.021Z,6.20
2023-01-18T20:47:09.881Z,6.20
2023-01-18T20:49:40.309Z,6.40
2023-01-18T20:52:10.057Z,6.30
2023-01-18T20:54:37.993Z,6.30
2023-01-18T20:57:06.075Z,6.30
2023-01-18T20:59:33.722Z,6.30
2023-01-18T21:02:03.263Z,6.30
2023-01-18T21:04:31.110Z,6.30
2023-01-18T21:06:59.090Z,6.20
2023-01-18T21:09:27.000Z,6.20
2023-01-18T21:11:54.659Z,6.10
2023-01-18T21:14:24.379Z,5.90
2023-01-18T21:16:52.216Z,6.10
2023-01-18T21:19:20.797Z,6.00
2023-01-18T21:21:48.503Z,6.00
2023-01-18T21:24:17.232Z,6.00
2023-01-18T21:26:44.917Z,6.00
2023-01-18T21:29:12.588Z,5.90
2023-01-18T21:31:41.208Z,5.80
2023-01-18T21:34:09.043Z,5.90
2023-01-18T21:36:36.796Z,6.00
2023-01-18T21:39:05.085Z,6.00
2023-01-18T21:41:51.118Z,5.80
2023-01-18T21:44:51.229Z,5.70
2023-01-18T21:47:18.895Z,5.70
2023-01-18T21:50:17.066Z,5.60
2023-01-18T21:53:03.796Z,5.60
2023-01-18T21:55:31.775Z,5.60
2023-01-18T21:58:19.054Z,5.60
2023-01-18T22:00:46.660Z,5.70
2023-01-18T22:03:15.432Z,5.80
2023-01-18T22:05:43.205Z,5.90
2023-01-18T22:08:10.983Z,5.90
2023-01-18T22:10:38.757Z,6.00
2023-01-18T22:13:06.600Z,6.00
2023-01-18T22:15:34.240Z,5.90
2023-01-18T22:18:02.301Z,6.00
2023-01-18T22:20:31.057Z,5.90
2023-01-18T22:22:59.369Z,5.70
2023-01-18T22:25:27.054Z,5.80
2023-01-18T22:27:54.726Z,5.90
2023-01-18T22:30:22.956Z,5.80
2023-01-18T22:32:50.699Z,5.60
2023-01-18T22:35:19.524Z,5.60
2023-01-18T22:37:47.195Z,5.50
2023-01-18T22:40:14.865Z,5.50
2023-01-18T22:42:42.567Z,5.50
2023-01-18T22:45:10.708Z,5.50
2023-01-18T22:47:38.344Z,5.50
2023-01-18T22:50:06.428Z,5.50
2023-01-18T22:52:34.250Z,5.60
2023-01-18T22:55:01.943Z,5.70
2023-01-18T22:57:29.815Z,5.80
2023-01-18T22:59:57.450Z,5.80
2023-01-18T23:02:25.074Z,5.70
2023-01-18T23:04:53.068Z,5.80
2023-01-18T23:07:20.711Z,5.70
2023-01-18T23:09:50.612Z,5.80
2023-01-18T23:12:19.162Z,5.90
2023-01-18T23:15:05.261Z,6.00
2023-01-18T23:17:38.806Z,5.90
2023-01-18T23:20:10.651Z,5.80
2023-01-18T23:22:38.500Z,5.70
2023-01-18T23:25:06.857Z,5.60
2023-01-18T23:27:34.499Z,5.60
2023-01-18T23:30:02.674Z,5.60
2023-01-18T23:32:30.670Z,5.70
2023-01-18T23:34:59.768Z,5.70
2023-01-18T23:37:27.740Z,5.70
2023-01-18T23:40:13.891Z,5.50
2023-01-18T23:43:00.444Z,5.50
2023-01-18T23:45:46.840Z,5.40
2023-01-18T23:48:35.637Z,5.40
2023-01-18T23:51:22.634Z,5.40
2023-01-18T23:54:08.782Z,5.60
2023-01-18T23:56:36.489Z,5.70
2023-01-18T23:59:04.244Z,5.70
